x

West Santa Barbara 38 Nm West Of Santa Barbara, Ca (46054) Wave Buoy

9:50 - Sat 13th Feb 2016 All times are PST. -8 hours from GMT.

  • Sig Wave height 11.5ft
  • Swell Direction
  • Peak Period 16s
  • Average Period 8s
  • Wind
    18mph, 25mph gusts
  • Sea Temp 57°f
  • Air Temp 60°f
  • Sea Pressure 1019.2mb
  • West Santa Barbara  38 Nm West Of Santa Barbara, Ca
  • West Santa Barbara  38 Nm West Of Santa Barbara, Ca

More Historic Weather Station data

Upgrade to MSW Pro to gain access to the past 30 days of data for over 8000 Wavebouys and Weather Stations around the globe.

Join Pro

Comparision Forecast

View Surf forecast
   
sam. 02/13 9:50 11.5ft 16s 8s 18 25 mph 1019.2mb 57f 60f
8:50 12.5ft 16s 9s 20 25 mph 1018.5mb 57f 60f
7:50 12ft 16s 8s 27 31 mph 1017.9mb 58f 59f
6:50 12.5ft 16s 9s 29 34 mph 1017.7mb 58f 58f
5:50 11.5ft 16s 8s 29 34 mph 1016.9mb 58f 59f
4:50 12ft 15s 8s 29 34 mph 1016.7mb 58f 58f
3:50 12.5ft 17s 9s 29 36 mph 1016.7mb 58f 58f
2:50 13.5ft 16s 9s 29 36 mph 1017.3mb 58f 57f
1:50 12ft 16s 9s 27 31 mph 1017.4mb 58f 59f
12:50 13ft 17s 10s 27 34 mph 1017.4mb 58f 58f
11:50 13ft 16s 10s 22 27 mph 1017.9mb 58f 60f
10:50 12ft 17s 11s 11 16 mph 1019mb 59f 60f
9:50 14ft 16s 11s 7 9 mph 1019.4mb 59f 58f
8:50 12.5ft 16s 11s 2 7 mph 1019.3mb 58f 56f
7:50 13ft 16s 11s 4 7 mph 1019.2mb 58f 59f
6:50 13ft 17s 11s 7 9 mph 1019mb 58f 60f
5:50 13ft 17s 11s 11 13 mph 1018.2mb 58f 60f
4:50 13ft 17s 11s 11 16 mph 1017.4mb 58f 59f
3:50 14ft 17s 12s 13 18 mph 1017.2mb 58f 59f
2:50 13ft 17s 11s 9 13 mph 1017.6mb 58f 59f
1:50 13ft 17s 10s 7 9 mph 1017.7mb 58f 59f
12:50 12ft 17s 10s 16 18 mph 1017.6mb 58f 58f
ven. 02/12 11:50 13ft 17s 10s 18 22 mph 1017.5mb 58f 56f
10:50 11ft 16s 9s 20 27 mph 1017.5mb 58f 55f
9:50 11ft 16s 9s 22 27 mph 1017.3mb 58f 57f
8:50 11ft 17s 9s 22 27 mph 1017.4mb 58f 58f
7:50 12.5ft 17s 10s 22 27 mph 1017.2mb 58f 58f
6:50 13ft 17s 11s 22 27 mph 1017.2mb 58f 58f
5:50 10ft 19s 9s 20 25 mph 1017.2mb 59f 58f
4:50 10.5ft 17s 11s 22 27 mph 1017.1mb 59f 59f
3:50 12ft 19s 12s 18 20 mph 1017.1mb 59f 59f
2:50 10ft 19s 11s 18 22 mph 1017.3mb 59f 58f
1:50 13ft 19s 13s 16 20 mph 1017.5mb 59f 58f
12:50 10.5ft 17s 11s 11 16 mph 1018.4mb 58f 57f
11:50 12ft 19s 12s 13 16 mph 1019.1mb 58f 56f
10:50 11.5ft 19s 11s 13 16 mph 1019.6mb 58f 56f
9:50 10ft 19s 11s 13 16 mph 1019.6mb 58f 56f
8:50 10.5ft 19s 11s 11 13 mph 1019.5mb 57f 56f
7:50 12.5ft 19s 12s 13 18 mph 1019.1mb 57f 56f
6:50 11ft 19s 11s 13 16 mph 1018.6mb 58f 56f
5:50 11ft 19s 10s 20 25 mph 1018.1mb 58f 55f
4:50 11ft 19s 10s 22 29 mph 1017.9mb 58f 54f
3:50 12ft 19s 11s 20 25 mph 1017.9mb 58f 55f
2:50 11.5ft 19s 11s 18 22 mph 1018.2mb 58f 55f
1:50 8ft 19s 9s 18 22 mph 1018.6mb 58f 55f
12:50 9ft 21s 10s 20 25 mph 1018.9mb 58f 55f
jeu. 02/11 11:50 9ft 19s 10s 13 18 mph 1019.2mb 58f 56f
10:50 9.5ft 21s 9s 16 20 mph 1019.2mb 58f 56f
9:50 9ft 21s 9s 20 25 mph 1018.9mb 58f 55f
8:50 8.5ft 21s 8s 20 25 mph 1019mb 58f 55f
7:50 8.5ft 21s 9s 20 22 mph 1018.6mb 58f 56f
6:50 7ft 21s 8s 18 22 mph 1018.6mb 58f 55f
5:50 7ft 21s 8s 18 20 mph 1018.3mb 58f 55f
4:50 6.5ft 13s 9s 16 18 mph 1018.3mb 59f 56f
3:50 6.5ft 21s 10s 18 20 mph 1018.2mb 59f 56f
2:50 6ft 24s 11s 11 13 mph 1018mb 60f 59f
1:50 6ft 12s 10s 7 9 mph 1018mb 59f 59f
12:50 6ft 13s 9s 9 13 mph 1018.5mb 58f 59f
11:50 6ft 11s 10s 9 11 mph 1019.3mb 58f 59f
10:50 6ft 12s 10s 4 7 mph 1019.5mb 58f 59f
9:50 5ft 11s 9s 4 7 mph 1019.5mb 58f 59f
8:50 5ft 14s 9s 4 7 mph 1018.9mb 58f 60f
7:50 5ft 13s 8s 2 4 mph 1018.5mb 58f 60f
6:50 4.5ft 12s 8s 4 7 mph 1018.2mb 58f 59f
5:50 5ft 14s 8s 7 9 mph 1018mb 58f 58f
4:50 5ft 13s 8s 11 13 mph 1018mb 58f 58f
3:50 4.5ft 12s 8s 9 11 mph 1017.9mb 57f 57f
2:50 4.5ft 12s 7s 7
mph
1018mb 57f 57f
1:50 4.5ft 14s 8s 4
mph
1018.3mb 58f 58f
12:50 4.5ft 13s 8s 4 7 mph 1018.2mb 58f 58f
mer. 02/10 11:50 4.5ft 13s 8s 9 11 mph 1018.5mb 58f 58f
10:50 4.5ft 13s 7s 9 11 mph 1018.4mb 58f 58f
9:50 4.5ft 11s 7s 11 13 mph 1018.5mb 58f 58f
8:50 4.5ft 14s 7s 11 13 mph 1018.2mb 57f 58f
7:50 4.5ft 12s 7s 13 16 mph 1018.1mb 57f 58f
6:50 4.5ft 13s 7s 16 18 mph 1018mb 57f 59f
5:50 4.5ft 12s 7s 13 16 mph 1018.1mb 58f 59f
4:50 4.5ft 13s 6s 16 18 mph 1018mb 58f 60f
3:50 4.5ft 13s 6s 18 22 mph 1018.2mb 58f 60f
2:50 4.5ft 12s 6s 18 20 mph 1018.4mb 58f 59f
1:50 4.5ft 14s 6s 13 16 mph 1019mb 58f 59f
12:50 5ft 13s 7s 16 18 mph 1019.4mb 58f 58f
11:50 5ft 13s 7s 16 20 mph 1020.4mb 58f 58f
10:50 4.5ft 13s 6s 16 18 mph 1020.6mb 58f 59f
9:50 5.5ft 13s 7s 18 22 mph 1020.5mb 58f 60f
8:50 4.5ft 13s 6s 13 16 mph 1020.3mb 57f 62f
7:50 5ft 14s 7s 16 18 mph 1019.9mb 57f 61f